Time;durP1;ratioP1;P1;durP2;ratioP2;P2;SDS_P1;SDS_P2;PMS_P1;PMS_P2;Temp;Humidity;BMP_temperature;BMP_pressure;BME280_temperature;BME280_humidity;BME280_pressure;Samples;Min_cycle;Max_cycle;Signal;HPM_P1;HPM_P2
2021/08/21 00:00:48;;;;;;;1.88;1.35;;;;;;;;;;2616516;39;20356;-65
2021/08/21 00:03:13;;;;;;;1.90;1.30;;;;;;;;;;2616474;54;20023;-66
2021/08/21 00:05:39;;;;;;;3.42;1.58;;;;;;;;;;2616045;54;20560;-64
2021/08/21 00:08:05;;;;;;;1.98;1.33;;;;;;;;;;2616712;54;20023;-66
2021/08/21 00:10:32;;;;;;;1.88;1.30;;;;;;;;;;2616072;54;20026;-65
2021/08/21 00:12:57;;;;;;;1.90;1.20;;;;;;;;;;2616666;54;20010;-65
2021/08/21 00:15:23;;;;;;;2.78;1.30;;;;;;;;;;2616563;54;20038;-65
2021/08/21 00:17:49;;;;;;;1.83;1.23;;;;;;;;;;2616164;54;20037;-66
2021/08/21 00:20:15;;;;;;;1.08;0.80;;;;;;;;;;2616565;54;20006;-64
2021/08/21 00:22:41;;;;;;;3.60;1.58;;;;;;;;;;2616370;54;20018;-65
2021/08/21 00:25:07;;;;;;;2.38;1.27;;;;;;;;;;2616842;39;20377;-65
2021/08/21 00:27:33;;;;;;;2.42;1.23;;;;;;;;;;2616566;54;20014;-65
2021/08/21 00:29:58;;;;;;;1.42;1.02;;;;;;;;;;2616431;54;20031;-65
2021/08/21 00:32:24;;;;;;;2.58;1.70;;;;;;;;;;2616739;54;20034;-66
2021/08/21 00:34:49;;;;;;;1.42;1.00;;;;;;;;;;2616207;54;20026;-64
2021/08/21 00:37:15;;;;;;;1.85;1.10;;;;;;;;;;2616216;54;20118;-64
2021/08/21 00:39:40;;;;;;;2.60;1.55;;;;;;;;;;2615753;54;20053;-65
2021/08/21 00:42:07;;;;;;;2.10;1.20;;;;;;;;;;2615862;54;20010;-64
2021/08/21 00:44:36;;;;;;;1.52;1.10;;;;;;;;;;2616180;54;20022;-65
2021/08/21 00:47:04;;;;;;;11.55;1.55;;;;;;;;;;2616361;54;20045;-65
2021/08/21 00:49:29;;;;;;;2.13;1.40;;;;;;;;;;2616427;47;20042;-64
2021/08/21 00:51:56;;;;;;;2.72;1.17;;;;;;;;;;2616240;54;20018;-64
2021/08/21 00:54:21;;;;;;;2.10;1.30;;;;;;;;;;2616411;54;20015;-64
2021/08/21 00:56:47;;;;;;;1.83;1.33;;;;;;;;;;2615779;54;20476;-64
2021/08/21 00:59:13;;;;;;;2.58;1.40;;;;;;;;;;2616227;54;20021;-64
2021/08/21 01:01:38;;;;;;;2.00;1.42;;;;;;;;;;2615594;54;20102;-65
2021/08/21 01:04:04;;;;;;;2.30;1.70;;;;;;;;;;2616784;39;20382;-64
2021/08/21 01:06:30;;;;;;;7.70;1.08;;;;;;;;;;2615928;54;20011;-64
2021/08/21 01:08:55;;;;;;;1.77;1.23;;;;;;;;;;2616565;54;20113;-65
2021/08/21 01:11:21;;;;;;;1.90;1.30;;;;;;;;;;2616316;48;20130;-65
2021/08/21 01:13:46;;;;;;;2.38;1.65;;;;;;;;;;2616331;54;20134;-65
2021/08/21 01:16:12;;;;;;;2.42;1.50;;;;;;;;;;2616380;54;20010;-65
2021/08/21 01:18:38;;;;;;;4.00;2.00;;;;;;;;;;2616099;54;20022;-64
2021/08/21 01:21:05;;;;;;;1.65;1.10;;;;;;;;;;2616447;54;20011;-65
2021/08/21 01:23:30;;;;;;;1.55;1.20;;;;;;;;;;2616153;54;20026;-65
2021/08/21 01:25:56;;;;;;;3.45;1.30;;;;;;;;;;2616408;54;20019;-65
2021/08/21 01:28:21;;;;;;;2.20;1.48;;;;;;;;;;2616449;54;20010;-65
2021/08/21 01:30:47;;;;;;;2.20;1.55;;;;;;;;;;2616080;47;20022;-65
2021/08/21 01:33:12;;;;;;;1.95;1.23;;;;;;;;;;2616552;46;20070;-65
2021/08/21 01:35:37;;;;;;;2.05;1.30;;;;;;;;;;2615489;54;20019;-65
2021/08/21 01:38:03;;;;;;;3.00;2.03;;;;;;;;;;2616426;54;20010;-66
2021/08/21 01:40:28;;;;;;;3.42;2.08;;;;;;;;;;2616004;54;20022;-65
2021/08/21 01:42:54;;;;;;;1.83;1.13;;;;;;;;;;2616647;46;20015;-65
2021/08/21 01:45:19;;;;;;;2.83;1.70;;;;;;;;;;2615993;54;20053;-65
2021/08/21 01:47:45;;;;;;;2.47;1.67;;;;;;;;;;2616256;39;20368;-66
2021/08/21 01:50:17;;;;;;;2.53;1.42;;;;;;;;;;2616975;39;20353;-65
2021/08/21 01:52:44;;;;;;;2.20;1.52;;;;;;;;;;2616022;54;20014;-65
2021/08/21 01:55:11;;;;;;;3.17;2.00;;;;;;;;;;2615936;54;20054;-65
2021/08/21 01:57:41;;;;;;;3.25;1.80;;;;;;;;;;2615998;54;20014;-65
2021/08/21 02:00:08;;;;;;;1.77;1.15;;;;;;;;;;2616241;54;20014;-65
2021/08/21 02:02:34;;;;;;;2.22;1.60;;;;;;;;;;2612575;54;20022;-65
2021/08/21 02:04:59;;;;;;;2.78;1.70;;;;;;;;;;2615689;54;20019;-65
2021/08/21 02:07:24;;;;;;;3.28;1.92;;;;;;;;;;2616654;39;20371;-65
2021/08/21 02:09:50;;;;;;;2.47;1.77;;;;;;;;;;2616357;54;20053;-66
2021/08/21 02:12:16;;;;;;;3.90;2.08;;;;;;;;;;2616001;54;20495;-66
2021/08/21 02:14:43;;;;;;;2.60;1.80;;;;;;;;;;2616549;39;20517;-67
2021/08/21 02:17:08;;;;;;;3.30;2.10;;;;;;;;;;2616265;54;20026;-67
2021/08/21 02:19:34;;;;;;;2.22;1.45;;;;;;;;;;2616285;54;20029;-68
2021/08/21 02:22:01;;;;;;;3.17;1.75;;;;;;;;;;2616264;54;20010;-68
2021/08/21 02:24:27;;;;;;;2.95;2.15;;;;;;;;;;2616282;54;20035;-68
2021/08/21 02:26:58;;;;;;;2.47;1.75;;;;;;;;;;2616429;39;20490;-69
2021/08/21 02:29:25;;;;;;;4.07;2.70;;;;;;;;;;2615844;54;20102;-69
2021/08/21 02:31:50;;;;;;;3.72;2.45;;;;;;;;;;2615938;39;20376;-68
2021/08/21 02:34:16;;;;;;;2.80;1.90;;;;;;;;;;2616319;54;20023;-67
2021/08/21 02:36:42;;;;;;;1.85;1.38;;;;;;;;;;2615933;54;20018;-67
2021/08/21 02:39:09;;;;;;;4.00;2.10;;;;;;;;;;2615940;54;20050;-67
2021/08/21 02:41:35;;;;;;;2.80;2.05;;;;;;;;;;2616425;39;20682;-67
2021/08/21 02:44:01;;;;;;;2.72;1.92;;;;;;;;;;2616319;54;20015;-67
2021/08/21 02:46:26;;;;;;;3.70;2.35;;;;;;;;;;2615995;54;20045;-67
2021/08/21 02:48:52;;;;;;;2.25;1.52;;;;;;;;;;2616026;54;20010;-67
2021/08/21 02:51:17;;;;;;;4.03;2.38;;;;;;;;;;2616316;54;20010;-67
2021/08/21 02:53:42;;;;;;;3.10;2.13;;;;;;;;;;2615987;54;20011;-67
2021/08/21 02:56:08;;;;;;;3.50;2.53;;;;;;;;;;2616834;31;20488;-67
2021/08/21 02:58:33;;;;;;;3.08;2.08;;;;;;;;;;2616244;54;20006;-67
2021/08/21 03:00:59;;;;;;;2.40;1.70;;;;;;;;;;2613817;47;20030;-66
2021/08/21 03:03:24;;;;;;;2.38;1.65;;;;;;;;;;2615940;54;20129;-66
2021/08/21 03:05:49;;;;;;;4.78;2.60;;;;;;;;;;2616081;39;20467;-67
2021/08/21 03:08:15;;;;;;;3.00;2.10;;;;;;;;;;2615457;54;20480;-67
2021/08/21 03:10:40;;;;;;;3.20;2.00;;;;;;;;;;2616134;46;20050;-66
2021/08/21 03:13:05;;;;;;;2.60;1.83;;;;;;;;;;2615971;54;20016;-67
2021/08/21 03:15:31;;;;;;;4.93;2.25;;;;;;;;;;2616499;39;20397;-66
2021/08/21 03:17:57;;;;;;;3.78;2.33;;;;;;;;;;2615910;54;20031;-66
2021/08/21 03:20:23;;;;;;;2.47;1.98;;;;;;;;;;2615754;39;20342;-66
2021/08/21 03:22:49;;;;;;;5.45;1.63;;;;;;;;;;2616303;39;20364;-66
2021/08/21 03:25:14;;;;;;;6.03;2.25;;;;;;;;;;2615871;54;20018;-66
2021/08/21 03:27:40;;;;;;;4.53;2.13;;;;;;;;;;2616069;54;20057;-66
2021/08/21 03:30:06;;;;;;;2.55;1.60;;;;;;;;;;2616047;54;20130;-66
2021/08/21 03:32:32;;;;;;;4.13;2.58;;;;;;;;;;2615904;54;20011;-66
2021/08/21 03:34:57;;;;;;;3.15;1.90;;;;;;;;;;2615909;47;20130;-66
2021/08/21 03:37:23;;;;;;;3.10;2.05;;;;;;;;;;2616113;54;20010;-67
2021/08/21 03:39:48;;;;;;;6.03;2.75;;;;;;;;;;2615996;54;20051;-66
2021/08/21 03:42:15;;;;;;;3.60;2.50;;;;;;;;;;2615819;54;20014;-66
2021/08/21 03:44:41;;;;;;;2.90;1.83;;;;;;;;;;2615942;54;20007;-66
2021/08/21 03:47:06;;;;;;;2.60;1.73;;;;;;;;;;2616042;54;20030;-65
2021/08/21 03:49:31;;;;;;;2.83;1.88;;;;;;;;;;2615203;54;20496;-66
2021/08/21 03:51:57;;;;;;;3.00;1.85;;;;;;;;;;2616172;39;20688;-66
2021/08/21 03:54:22;;;;;;;2.17;1.73;;;;;;;;;;2615920;54;20049;-66
2021/08/21 03:56:47;;;;;;;2.78;1.88;;;;;;;;;;2616061;54;20025;-66
2021/08/21 03:59:13;;;;;;;3.30;2.20;;;;;;;;;;2614320;54;20038;-66
2021/08/21 04:01:38;;;;;;;3.78;2.50;;;;;;;;;;2615353;54;20034;-65
2021/08/21 04:04:04;;;;;;;2.38;1.65;;;;;;;;;;2614927;54;20150;-66
2021/08/21 04:06:29;;;;;;;2.28;1.58;;;;;;;;;;2615427;47;20038;-65
2021/08/21 04:08:54;;;;;;;2.17;1.58;;;;;;;;;;2615801;54;20033;-66
2021/08/21 04:11:20;;;;;;;2.58;1.80;;;;;;;;;;2615583;54;20022;-66
2021/08/21 04:13:45;;;;;;;3.72;2.08;;;;;;;;;;2615650;54;20049;-65
2021/08/21 04:16:11;;;;;;;3.53;2.05;;;;;;;;;;2615696;54;20034;-65
2021/08/21 04:18:36;;;;;;;3.05;1.90;;;;;;;;;;2615484;54;20010;-66
2021/08/21 04:21:03;;;;;;;6.00;2.33;;;;;;;;;;2616074;31;20211;-66
2021/08/21 04:23:28;;;;;;;2.90;1.77;;;;;;;;;;2615527;54;20010;-64
2021/08/21 04:25:59;;;;;;;1.95;1.35;;;;;;;;;;2614952;54;20045;-65
2021/08/21 04:28:29;;;;;;;2.92;1.42;;;;;;;;;;2613646;54;20030;-65
2021/08/21 04:30:54;;;;;;;2.33;1.70;;;;;;;;;;2615416;54;20022;-65
2021/08/21 04:33:20;;;;;;;3.78;2.15;;;;;;;;;;2615390;54;20023;-65
2021/08/21 04:35:46;;;;;;;2.00;1.45;;;;;;;;;;2615191;54;20030;-65
2021/08/21 04:38:11;;;;;;;3.22;2.25;;;;;;;;;;2616570;54;20037;-65
2021/08/21 04:40:36;;;;;;;4.50;2.35;;;;;;;;;;2616468;47;20017;-65
2021/08/21 04:43:02;;;;;;;4.68;2.78;;;;;;;;;;2616399;54;20018;-66
2021/08/21 04:45:27;;;;;;;2.78;2.03;;;;;;;;;;2616551;54;20030;-65
2021/08/21 04:47:53;;;;;;;3.45;2.35;;;;;;;;;;2616612;54;20015;-65
2021/08/21 04:50:18;;;;;;;2.88;1.77;;;;;;;;;;2616745;54;20509;-65
2021/08/21 04:52:44;;;;;;;2.38;1.63;;;;;;;;;;2616225;54;20026;-66
2021/08/21 04:55:09;;;;;;;3.45;2.55;;;;;;;;;;2616554;54;20015;-66
2021/08/21 04:57:35;;;;;;;2.63;1.73;;;;;;;;;;2616590;54;20015;-66
2021/08/21 05:00:02;;;;;;;3.42;2.05;;;;;;;;;;2615935;54;20015;-65
2021/08/21 05:02:28;;;;;;;3.58;2.55;;;;;;;;;;2615585;54;20019;-66
2021/08/21 05:04:53;;;;;;;5.75;2.97;;;;;;;;;;2616303;54;20476;-65
2021/08/21 05:07:19;;;;;;;5.03;2.53;;;;;;;;;;2616588;54;20049;-65
2021/08/21 05:09:44;;;;;;;3.60;2.60;;;;;;;;;;2616137;54;20029;-65
2021/08/21 05:12:09;;;;;;;5.30;2.13;;;;;;;;;;2616381;54;20018;-65
2021/08/21 05:14:35;;;;;;;5.00;1.95;;;;;;;;;;2616425;54;20018;-65
2021/08/21 05:17:00;;;;;;;3.45;2.15;;;;;;;;;;2616244;54;20044;-65
2021/08/21 05:19:38;;;;;;;4.43;2.08;;;;;;;;;;2616604;54;20034;-65
2021/08/21 05:22:22;;;;;;;4.35;2.47;;;;;;;;;;2616641;54;20034;-65
2021/08/21 05:24:49;;;;;;;3.72;2.40;;;;;;;;;;2616444;54;20023;-66
2021/08/21 05:27:16;;;;;;;3.75;2.50;;;;;;;;;;2616328;54;20022;-66
2021/08/21 05:29:41;;;;;;;4.80;3.10;;;;;;;;;;2616368;54;20508;-66
2021/08/21 05:32:07;;;;;;;6.95;2.80;;;;;;;;;;2616519;54;20049;-66
2021/08/21 05:34:33;;;;;;;3.60;2.22;;;;;;;;;;2616312;54;20045;-66
2021/08/21 05:36:58;;;;;;;3.42;2.25;;;;;;;;;;2616797;39;20480;-64
2021/08/21 05:39:24;;;;;;;3.00;2.35;;;;;;;;;;2616559;54;20019;-65
2021/08/21 05:41:49;;;;;;;3.00;1.77;;;;;;;;;;2616159;54;20096;-65
2021/08/21 05:44:15;;;;;;;3.90;2.55;;;;;;;;;;2616160;54;20018;-65
2021/08/21 05:46:40;;;;;;;3.33;2.15;;;;;;;;;;2616277;54;20018;-64
2021/08/21 05:49:06;;;;;;;2.92;1.92;;;;;;;;;;2616070;54;20009;-65
2021/08/21 05:51:31;;;;;;;2.80;2.08;;;;;;;;;;2616508;54;20022;-66
2021/08/21 05:53:57;;;;;;;3.28;2.17;;;;;;;;;;2615965;54;20046;-65
2021/08/21 05:56:23;;;;;;;3.22;2.25;;;;;;;;;;2616171;54;20023;-65
2021/08/21 05:58:48;;;;;;;3.08;2.10;;;;;;;;;;2616366;54;20045;-65
2021/08/21 06:01:13;;;;;;;3.25;2.05;;;;;;;;;;2616354;54;20022;-65
2021/08/21 06:03:39;;;;;;;3.22;2.42;;;;;;;;;;2615948;54;20049;-65
2021/08/21 06:06:04;;;;;;;3.90;1.73;;;;;;;;;;2616276;54;20103;-65
2021/08/21 06:08:29;;;;;;;3.30;2.38;;;;;;;;;;2616501;54;20026;-65
2021/08/21 06:10:57;;;;;;;4.32;2.50;;;;;;;;;;2616054;54;20045;-65
2021/08/21 06:13:23;;;;;;;6.20;2.25;;;;;;;;;;2616083;54;20018;-64
2021/08/21 06:15:48;;;;;;;3.90;2.33;;;;;;;;;;2615977;54;20011;-64
2021/08/21 06:18:13;;;;;;;3.40;2.40;;;;;;;;;;2616083;54;20017;-64
2021/08/21 06:20:39;;;;;;;2.65;1.92;;;;;;;;;;2615873;54;20022;-64
2021/08/21 06:23:04;;;;;;;3.90;2.38;;;;;;;;;;2616255;54;20500;-64
2021/08/21 06:25:30;;;;;;;2.78;1.92;;;;;;;;;;2616419;54;20106;-65
2021/08/21 06:27:55;;;;;;;2.63;2.10;;;;;;;;;;2616224;47;20026;-65
2021/08/21 06:30:21;;;;;;;3.60;2.38;;;;;;;;;;2615983;54;20014;-65
2021/08/21 06:32:46;;;;;;;3.75;2.33;;;;;;;;;;2615771;54;20023;-65
2021/08/21 06:35:11;;;;;;;2.47;2.00;;;;;;;;;;2615949;54;20018;-65
2021/08/21 06:37:37;;;;;;;2.90;2.08;;;;;;;;;;2616181;54;20090;-65
2021/08/21 06:40:04;;;;;;;3.05;1.88;;;;;;;;;;2615917;54;20170;-64
2021/08/21 06:42:29;;;;;;;3.60;2.83;;;;;;;;;;2615873;54;20010;-66
2021/08/21 06:44:55;;;;;;;2.85;2.17;;;;;;;;;;2615913;54;20678;-65
2021/08/21 06:47:20;;;;;;;3.55;2.25;;;;;;;;;;2615540;54;20014;-64
2021/08/21 06:49:46;;;;;;;2.92;1.88;;;;;;;;;;2615834;54;20027;-65
2021/08/21 06:52:11;;;;;;;3.92;2.25;;;;;;;;;;2616195;54;20017;-65
2021/08/21 06:54:36;;;;;;;3.55;2.38;;;;;;;;;;2616067;54;20018;-65
2021/08/21 06:57:02;;;;;;;3.72;2.55;;;;;;;;;;2616303;54;20049;-65
2021/08/21 06:59:27;;;;;;;3.60;2.42;;;;;;;;;;2615829;54;20058;-65
2021/08/21 07:01:53;;;;;;;2.58;1.95;;;;;;;;;;2616096;54;20019;-65
2021/08/21 07:04:18;;;;;;;3.25;2.38;;;;;;;;;;2616092;54;20011;-65
2021/08/21 07:06:44;;;;;;;2.78;2.03;;;;;;;;;;2615871;54;20023;-65
2021/08/21 07:09:09;;;;;;;2.70;2.10;;;;;;;;;;2616231;54;20014;-65
2021/08/21 07:11:35;;;;;;;2.90;2.38;;;;;;;;;;2615935;54;20015;-65
2021/08/21 07:14:00;;;;;;;2.80;1.85;;;;;;;;;;2616027;54;20021;-65
2021/08/21 07:16:25;;;;;;;3.17;2.30;;;;;;;;;;2616072;54;20109;-64
2021/08/21 07:18:51;;;;;;;3.13;2.28;;;;;;;;;;2615408;54;20042;-64
2021/08/21 07:21:16;;;;;;;3.03;2.22;;;;;;;;;;2616272;54;20022;-66
2021/08/21 07:23:42;;;;;;;2.72;2.13;;;;;;;;;;2615849;54;20041;-65
2021/08/21 07:26:07;;;;;;;2.88;2.08;;;;;;;;;;2615517;54;20141;-65
2021/08/21 07:28:33;;;;;;;2.88;2.35;;;;;;;;;;2616148;54;20480;-63
2021/08/21 07:30:59;;;;;;;4.05;2.38;;;;;;;;;;2615672;47;20038;-64
2021/08/21 07:33:24;;;;;;;3.42;2.50;;;;;;;;;;2615894;54;20018;-63
2021/08/21 07:35:49;;;;;;;3.00;2.28;;;;;;;;;;2615569;54;20031;-63
2021/08/21 07:38:15;;;;;;;3.53;2.58;;;;;;;;;;2616106;54;20022;-64
2021/08/21 07:40:41;;;;;;;3.05;2.10;;;;;;;;;;2615901;39;20364;-64
2021/08/21 07:43:07;;;;;;;2.45;1.70;;;;;;;;;;2615674;47;20022;-64
2021/08/21 07:45:32;;;;;;;3.65;2.83;;;;;;;;;;2615150;54;20017;-64
2021/08/21 07:47:57;;;;;;;3.03;2.10;;;;;;;;;;2615888;54;20011;-65
2021/08/21 07:50:23;;;;;;;3.25;2.55;;;;;;;;;;2616329;54;20014;-66
2021/08/21 07:52:48;;;;;;;3.67;2.65;;;;;;;;;;2615818;54;20023;-65
2021/08/21 07:55:14;;;;;;;4.82;2.67;;;;;;;;;;2615556;54;20022;-65
2021/08/21 07:57:40;;;;;;;3.08;2.38;;;;;;;;;;2615940;54;20512;-66
2021/08/21 08:00:06;;;;;;;2.88;2.08;;;;;;;;;;2616278;39;20409;-64
2021/08/21 08:02:32;;;;;;;2.85;2.33;;;;;;;;;;2615955;54;20011;-64
2021/08/21 08:04:58;;;;;;;2.92;2.47;;;;;;;;;;2615330;54;20018;-64
2021/08/21 08:07:23;;;;;;;3.78;2.65;;;;;;;;;;2615905;54;20026;-64
2021/08/21 08:09:49;;;;;;;2.80;1.80;;;;;;;;;;2615886;54;20023;-63
2021/08/21 08:12:14;;;;;;;5.10;3.05;;;;;;;;;;2616226;54;20018;-64
2021/08/21 08:14:39;;;;;;;3.05;2.33;;;;;;;;;;2616356;54;20015;-67
2021/08/21 08:17:05;;;;;;;2.90;2.30;;;;;;;;;;2616681;54;20110;-67
2021/08/21 08:19:30;;;;;;;3.53;2.08;;;;;;;;;;2616766;54;20017;-67
2021/08/21 08:21:56;;;;;;;2.85;2.38;;;;;;;;;;2616570;47;20015;-66
2021/08/21 08:24:23;;;;;;;2.72;2.08;;;;;;;;;;2616317;54;20144;-67
2021/08/21 08:26:49;;;;;;;3.17;2.53;;;;;;;;;;2616715;54;20022;-66
2021/08/21 08:29:15;;;;;;;3.58;2.58;;;;;;;;;;2617098;46;20402;-66
2021/08/21 08:31:40;;;;;;;3.50;2.47;;;;;;;;;;2616088;54;20465;-65
2021/08/21 08:34:05;;;;;;;3.53;2.60;;;;;;;;;;2616000;54;20015;-65
2021/08/21 08:36:31;;;;;;;3.83;2.90;;;;;;;;;;2616347;54;20053;-65
2021/08/21 08:38:56;;;;;;;2.83;2.38;;;;;;;;;;2616255;54;20015;-64
2021/08/21 08:41:22;;;;;;;3.30;2.80;;;;;;;;;;2616244;54;20055;-64
2021/08/21 08:43:48;;;;;;;3.42;3.13;;;;;;;;;;2616446;54;20018;-64
2021/08/21 08:46:17;;;;;;;3.85;3.40;;;;;;;;;;2616444;54;20037;-63
2021/08/21 08:48:43;;;;;;;3.88;3.33;;;;;;;;;;2616573;54;20022;-64
2021/08/21 08:51:10;;;;;;;4.05;3.65;;;;;;;;;;2616443;54;20050;-64
2021/08/21 08:53:35;;;;;;;3.83;3.38;;;;;;;;;;2616245;54;20025;-65
2021/08/21 08:56:01;;;;;;;3.80;3.42;;;;;;;;;;2616686;39;20704;-64
2021/08/21 08:58:27;;;;;;;4.07;3.10;;;;;;;;;;2616522;54;20018;-66
2021/08/21 09:00:52;;;;;;;3.55;2.88;;;;;;;;;;2616171;54;20030;-66
2021/08/21 09:03:23;;;;;;;3.10;2.53;;;;;;;;;;2616637;39;20602;-66
2021/08/21 09:05:49;;;;;;;3.50;3.10;;;;;;;;;;2616103;54;20021;-65
2021/08/21 09:08:28;;;;;;;3.53;3.13;;;;;;;;;;2616161;54;20130;-65
2021/08/21 09:10:58;;;;;;;3.40;3.08;;;;;;;;;;2616240;54;20023;-66
2021/08/21 09:13:24;;;;;;;2.90;2.42;;;;;;;;;;2616024;54;20045;-66
2021/08/21 09:15:54;;;;;;;3.20;2.72;;;;;;;;;;2615149;39;20464;-66
2021/08/21 09:18:23;;;;;;;3.28;2.78;;;;;;;;;;2615241;47;20014;-66
2021/08/21 09:20:48;;;;;;;3.00;2.20;;;;;;;;;;2615151;54;20022;-65
2021/08/21 09:23:37;;;;;;;4.68;2.67;;;;;;;;;;2614905;54;20011;-66
2021/08/21 09:26:18;;;;;;;3.20;2.90;;;;;;;;;;2614973;54;20026;-65
2021/08/21 09:28:45;;;;;;;3.50;2.88;;;;;;;;;;2614957;54;20019;-66
2021/08/21 09:31:15;;;;;;;3.88;3.22;;;;;;;;;;2615327;54;20006;-66
2021/08/21 09:33:42;;;;;;;;;;;;;;;;;;2616375;47;20019;-66
2021/08/21 09:36:12;;;;;;;2.45;2.00;;;;;;;;;;2616061;54;20437;-65
2021/08/21 09:38:38;;;;;;;3.20;2.83;;;;;;;;;;2616490;54;20007;-65
2021/08/21 09:41:09;;;;;;;4.30;3.28;;;;;;;;;;2616018;54;20011;-65
2021/08/21 09:43:37;;;;;;;3.17;2.88;;;;;;;;;;2616360;54;20022;-65
2021/08/21 09:46:20;;;;;;;5.80;2.83;;;;;;;;;;2616248;54;20037;-66
2021/08/21 09:49:03;;;;;;;3.45;3.15;;;;;;;;;;2615857;54;20018;-67
2021/08/21 09:51:42;;;;;;;2.80;2.42;;;;;;;;;;2615856;54;20046;-65
2021/08/21 09:54:15;;;;;;;3.50;3.08;;;;;;;;;;2616216;54;20014;-66
2021/08/21 09:56:46;;;;;;;3.15;2.83;;;;;;;;;;2616007;47;20135;-64
2021/08/21 09:59:12;;;;;;;3.28;2.92;;;;;;;;;;2615442;54;20038;-64
2021/08/21 10:01:37;;;;;;;3.42;3.13;;;;;;;;;;2616250;54;20077;-65
2021/08/21 10:04:03;;;;;;;3.20;2.90;;;;;;;;;;2616053;54;20015;-64
2021/08/21 10:06:29;;;;;;;3.28;2.97;;;;;;;;;;2615942;54;20029;-65
2021/08/21 10:09:00;;;;;;;2.95;2.65;;;;;;;;;;2616130;54;20018;-66
2021/08/21 10:11:27;;;;;;;2.97;2.45;;;;;;;;;;2615470;54;20026;-65
2021/08/21 10:13:53;;;;;;;3.30;3.00;;;;;;;;;;2615298;54;20029;-66
2021/08/21 10:16:19;;;;;;;3.45;3.15;;;;;;;;;;2616281;54;20015;-65
2021/08/21 10:18:47;;;;;;;3.53;3.20;;;;;;;;;;2615667;54;20014;-66
2021/08/21 10:21:15;;;;;;;3.13;2.55;;;;;;;;;;2616055;54;20102;-66
2021/08/21 10:23:45;;;;;;;3.70;3.30;;;;;;;;;;2616311;54;20019;-65
2021/08/21 10:26:27;;;;;;;3.92;3.53;;;;;;;;;;2615879;54;20018;-66
2021/08/21 10:28:54;;;;;;;3.30;3.00;;;;;;;;;;2616298;39;20368;-66
2021/08/21 10:31:34;;;;;;;4.50;4.07;;;;;;;;;;2615811;54;20022;-66
2021/08/21 10:34:00;;;;;;;3.22;2.78;;;;;;;;;;2615833;54;20027;-66
2021/08/21 10:36:45;;;;;;;2.75;2.10;;;;;;;;;;2615863;54;20041;-65
2021/08/21 10:39:17;;;;;;;3.22;2.92;;;;;;;;;;2615775;54;20026;-65
2021/08/21 10:41:42;;;;;;;4.20;3.80;;;;;;;;;;2614892;54;20019;-67
2021/08/21 10:44:08;;;;;;;3.80;2.42;;;;;;;;;;2615705;54;20014;-66
2021/08/21 10:46:33;;;;;;;4.32;3.85;;;;;;;;;;2615854;54;20136;-66
2021/08/21 10:49:06;;;;;;;4.07;3.72;;;;;;;;;;2616163;54;20017;-66
2021/08/21 10:51:38;;;;;;;4.07;3.67;;;;;;;;;;2616343;54;20010;-66
2021/08/21 10:54:19;;;;;;;4.78;3.65;;;;;;;;;;2616034;54;20022;-66
2021/08/21 10:56:45;;;;;;;3.78;3.42;;;;;;;;;;2616329;39;20782;-66
2021/08/21 10:59:10;;;;;;;5.13;4.63;;;;;;;;;;2616694;39;20325;-66
2021/08/21 11:01:36;;;;;;;4.70;4.30;;;;;;;;;;2615995;46;20026;-65
2021/08/21 11:04:01;;;;;;;3.38;3.08;;;;;;;;;;2615566;54;20575;-65
2021/08/21 11:06:33;;;;;;;3.00;2.70;;;;;;;;;;2615790;54;20110;-64
2021/08/21 11:09:00;;;;;;;4.18;3.78;;;;;;;;;;2615856;54;20102;-65
2021/08/21 11:11:39;;;;;;;4.53;4.00;;;;;;;;;;2615778;54;20029;-64
2021/08/21 11:14:23;;;;;;;4.30;3.90;;;;;;;;;;2615302;54;20026;-66
2021/08/21 11:17:00;;;;;;;3.35;3.05;;;;;;;;;;2615310;54;20294;-66
2021/08/21 11:19:28;;;;;;;3.85;3.53;;;;;;;;;;2615426;54;20014;-64
2021/08/21 11:22:19;;;;;;;3.90;3.60;;;;;;;;;;2615863;54;20018;-65
2021/08/21 11:24:56;;;;;;;4.90;4.50;;;;;;;;;;2615667;54;20021;-65
2021/08/21 11:27:24;;;;;;;3.78;3.47;;;;;;;;;;2615965;54;20508;-65
2021/08/21 11:30:04;;;;;;;4.03;3.63;;;;;;;;;;2615959;54;20015;-65
2021/08/21 11:32:31;;;;;;;6.63;4.32;;;;;;;;;;2616300;54;20027;-62
2021/08/21 11:34:57;;;;;;;3.83;3.50;;;;;;;;;;2616127;54;20053;-62
2021/08/21 11:37:22;;;;;;;3.42;3.13;;;;;;;;;;2616361;39;20360;-63
2021/08/21 11:39:54;;;;;;;3.78;3.47;;;;;;;;;;2615903;54;20053;-63
2021/08/21 11:42:20;;;;;;;4.13;3.83;;;;;;;;;;2615079;54;20027;-64
2021/08/21 11:44:55;;;;;;;4.82;3.67;;;;;;;;;;2615715;54;20106;-62
2021/08/21 11:47:29;;;;;;;3.83;3.53;;;;;;;;;;2615392;54;20023;-62
2021/08/21 11:49:54;;;;;;;4.28;3.60;;;;;;;;;;2615908;54;20030;-62
2021/08/21 11:52:19;;;;;;;4.05;3.65;;;;;;;;;;2616674;54;20037;-62
2021/08/21 11:54:49;;;;;;;5.28;3.25;;;;;;;;;;2616985;54;20564;-62
2021/08/21 11:57:15;;;;;;;4.07;3.72;;;;;;;;;;2616982;54;20011;-63
2021/08/21 11:59:40;;;;;;;3.42;2.95;;;;;;;;;;2616460;54;20054;-62
2021/08/21 12:02:10;;;;;;;4.18;3.30;;;;;;;;;;2616322;54;20046;-62
2021/08/21 12:04:35;;;;;;;3.50;2.80;;;;;;;;;;2616772;54;20018;-63
2021/08/21 12:07:01;;;;;;;4.68;3.05;;;;;;;;;;2616631;54;20262;-63
2021/08/21 12:09:26;;;;;;;3.63;3.33;;;;;;;;;;2616566;54;20022;-62
2021/08/21 12:11:54;;;;;;;5.32;3.10;;;;;;;;;;2616967;39;20349;-62
2021/08/21 12:14:23;;;;;;;6.82;3.38;;;;;;;;;;2616655;54;20118;-62
2021/08/21 12:16:54;;;;;;;3.90;3.22;;;;;;;;;;2616200;54;20010;-62
2021/08/21 12:19:21;;;;;;;7.88;2.70;;;;;;;;;;2616646;54;20010;-62
2021/08/21 12:21:48;;;;;;;3.00;2.65;;;;;;;;;;2615088;54;20061;-63
2021/08/21 12:24:13;;;;;;;3.17;2.88;;;;;;;;;;2616287;54;20022;-62
2021/08/21 12:26:41;;;;;;;4.45;2.60;;;;;;;;;;2616132;54;20017;-62
2021/08/21 12:29:22;;;;;;;3.53;3.22;;;;;;;;;;2616270;54;20519;-62
2021/08/21 12:31:48;;;;;;;3.15;2.47;;;;;;;;;;2616506;39;20412;-62
2021/08/21 12:34:19;;;;;;;3.47;3.08;;;;;;;;;;2616263;54;20061;-62
2021/08/21 12:36:45;;;;;;;3.80;3.15;;;;;;;;;;2615117;54;20014;-62
2021/08/21 12:39:20;;;;;;;3.53;3.13;;;;;;;;;;2616075;54;20018;-62
2021/08/21 12:42:00;;;;;;;3.00;2.58;;;;;;;;;;2616608;54;20018;-62
2021/08/21 12:44:36;;;;;;;2.22;1.67;;;;;;;;;;2616792;54;20045;-62
2021/08/21 12:47:04;;;;;;;4.00;3.42;;;;;;;;;;2616150;54;20017;-63
2021/08/21 12:49:40;;;;;;;2.90;2.58;;;;;;;;;;2616103;54;20037;-63
2021/08/21 12:52:11;;;;;;;3.13;2.35;;;;;;;;;;2616410;54;20030;-62
2021/08/21 12:54:39;;;;;;;3.45;2.30;;;;;;;;;;2616506;54;20023;-62
2021/08/21 12:57:06;;;;;;;2.83;2.10;;;;;;;;;;2615434;54;20026;-62
2021/08/21 12:59:32;;;;;;;3.03;2.60;;;;;;;;;;2616326;54;20042;-62
2021/08/21 13:02:05;;;;;;;5.43;2.20;;;;;;;;;;2616478;53;20011;-62
2021/08/21 13:04:30;;;;;;;3.70;2.83;;;;;;;;;;2616457;54;20014;-62
2021/08/21 13:07:03;;;;;;;5.50;2.15;;;;;;;;;;2615954;54;20029;-62
2021/08/21 13:09:29;;;;;;;2.85;2.53;;;;;;;;;;2616424;54;20023;-62
2021/08/21 13:11:56;;;;;;;2.90;2.35;;;;;;;;;;2616497;54;20027;-62
2021/08/21 13:14:21;;;;;;;3.30;2.67;;;;;;;;;;2616633;54;20011;-62
2021/08/21 13:16:47;;;;;;;3.33;2.80;;;;;;;;;;2616067;54;20069;-62
2021/08/21 13:19:12;;;;;;;3.60;2.90;;;;;;;;;;2616299;54;20010;-62
2021/08/21 13:21:38;;;;;;;3.67;3.15;;;;;;;;;;2617251;31;20525;-62
2021/08/21 13:24:03;;;;;;;5.07;2.85;;;;;;;;;;2616249;54;20038;-62
2021/08/21 13:26:30;;;;;;;2.70;2.28;;;;;;;;;;2615909;54;20010;-63
2021/08/21 13:28:55;;;;;;;2.95;2.40;;;;;;;;;;2616386;54;20545;-62
2021/08/21 13:31:21;;;;;;;2.83;2.28;;;;;;;;;;2616539;54;20021;-63
2021/08/21 13:33:46;;;;;;;2.55;1.98;;;;;;;;;;2616870;39;20479;-63
2021/08/21 13:36:12;;;;;;;2.70;2.00;;;;;;;;;;2616189;54;20062;-61
2021/08/21 13:38:37;;;;;;;2.78;1.98;;;;;;;;;;2615569;54;20021;-62
2021/08/21 13:41:03;;;;;;;3.25;2.65;;;;;;;;;;2615800;54;20134;-61
2021/08/21 13:43:28;;;;;;;2.90;2.38;;;;;;;;;;2616792;39;20393;-61
2021/08/21 13:45:54;;;;;;;2.80;2.20;;;;;;;;;;2614197;54;20139;-63
2021/08/21 13:48:19;;;;;;;2.75;2.10;;;;;;;;;;2616143;54;20110;-62
2021/08/21 13:50:44;;;;;;;3.15;2.45;;;;;;;;;;2616139;54;20018;-62
2021/08/21 13:53:10;;;;;;;2.97;2.35;;;;;;;;;;2616020;54;20110;-61
2021/08/21 13:55:36;;;;;;;2.70;2.00;;;;;;;;;;2616026;47;20049;-62
2021/08/21 13:58:01;;;;;;;3.25;2.15;;;;;;;;;;2615885;54;20560;-61
2021/08/21 14:00:26;;;;;;;3.70;2.70;;;;;;;;;;2615975;54;20732;-62
2021/08/21 14:02:52;;;;;;;2.53;1.88;;;;;;;;;;2615681;54;20022;-62
2021/08/21 14:05:17;;;;;;;3.25;2.33;;;;;;;;;;2616193;54;20023;-62
2021/08/21 14:07:43;;;;;;;2.88;1.80;;;;;;;;;;2616031;54;20038;-62
2021/08/21 14:10:12;;;;;;;2.63;2.20;;;;;;;;;;2616207;31;20437;-61
2021/08/21 14:12:38;;;;;;;2.70;2.20;;;;;;;;;;2616282;54;20135;-61
2021/08/21 14:15:05;;;;;;;2.78;1.95;;;;;;;;;;2616326;54;20268;-61
2021/08/21 14:17:31;;;;;;;2.58;1.83;;;;;;;;;;2615982;54;20484;-62
2021/08/21 14:19:56;;;;;;;2.63;2.13;;;;;;;;;;2615551;54;20026;-62
2021/08/21 14:22:22;;;;;;;2.40;1.92;;;;;;;;;;2616165;54;20015;-61
2021/08/21 14:24:47;;;;;;;3.42;2.40;;;;;;;;;;2615847;54;20011;-62
2021/08/21 14:27:13;;;;;;;2.63;1.80;;;;;;;;;;2615188;51;20015;-61
2021/08/21 14:29:38;;;;;;;3.03;1.92;;;;;;;;;;2614655;54;20026;-61
2021/08/21 14:32:06;;;;;;;3.20;2.30;;;;;;;;;;2614323;54;20022;-61
2021/08/21 14:34:32;;;;;;;5.43;2.88;;;;;;;;;;2614580;54;20027;-62
2021/08/21 14:36:58;;;;;;;2.65;1.95;;;;;;;;;;2616028;54;20030;-62
2021/08/21 14:39:23;;;;;;;6.43;2.63;;;;;;;;;;2615744;54;20129;-62
2021/08/21 14:41:49;;;;;;;2.63;1.92;;;;;;;;;;2615887;54;20148;-62